sensor_id;sensor_type;location;lat;lon;timestamp;temperature;humidity
3792;DHT22;1911;53.768;11.474;2023-08-17T00:00:10;17.30;99.90
3792;DHT22;1911;53.768;11.474;2023-08-17T00:02:41;17.30;99.90
3792;DHT22;1911;53.768;11.474;2023-08-17T00:05:07;17.30;99.90
3792;DHT22;1911;53.768;11.474;2023-08-17T00:07:33;17.30;99.90
3792;DHT22;1911;53.768;11.474;2023-08-17T00:09:59;17.30;99.90
3792;DHT22;1911;53.768;11.474;2023-08-17T00:12:25;17.30;99.90
3792;DHT22;1911;53.768;11.474;2023-08-17T00:14:51;17.30;99.90
3792;DHT22;1911;53.768;11.474;2023-08-17T00:17:17;17.30;99.90
3792;DHT22;1911;53.768;11.474;2023-08-17T00:19:42;17.40;99.90
3792;DHT22;1911;53.768;11.474;2023-08-17T00:22:08;17.40;99.90
3792;DHT22;1911;53.768;11.474;2023-08-17T00:24:34;17.40;99.90
3792;DHT22;1911;53.768;11.474;2023-08-17T00:26:59;17.40;99.90
3792;DHT22;1911;53.768;11.474;2023-08-17T00:29:25;17.40;99.90
3792;DHT22;1911;53.768;11.474;2023-08-17T00:31:51;17.40;99.90
3792;DHT22;1911;53.768;11.474;2023-08-17T00:34:17;17.40;99.90
3792;DHT22;1911;53.768;11.474;2023-08-17T00:36:43;17.40;99.90
3792;DHT22;1911;53.768;11.474;2023-08-17T00:39:09;17.30;99.90
3792;DHT22;1911;53.768;11.474;2023-08-17T00:41:34;17.30;99.90
3792;DHT22;1911;53.768;11.474;2023-08-17T00:44:00;17.20;99.90
3792;DHT22;1911;53.768;11.474;2023-08-17T00:46:26;17.20;99.90
3792;DHT22;1911;53.768;11.474;2023-08-17T00:48:53;17.20;99.90
3792;DHT22;1911;53.768;11.474;2023-08-17T00:51:24;17.20;99.90
3792;DHT22;1911;53.768;11.474;2023-08-17T00:53:55;17.20;99.90
3792;DHT22;1911;53.768;11.474;2023-08-17T00:56:23;17.10;99.90
3792;DHT22;1911;53.768;11.474;2023-08-17T00:58:49;17.10;99.90
3792;DHT22;1911;53.768;11.474;2023-08-17T01:01:19;17.10;99.90
3792;DHT22;1911;53.768;11.474;2023-08-17T01:03:45;17.00;99.90
3792;DHT22;1911;53.768;11.474;2023-08-17T01:06:11;17.00;99.90
3792;DHT22;1911;53.768;11.474;2023-08-17T01:08:37;16.90;99.90
3792;DHT22;1911;53.768;11.474;2023-08-17T01:11:27;16.90;99.90
3792;DHT22;1911;53.768;11.474;2023-08-17T01:14:01;16.80;99.90
3792;DHT22;1911;53.768;11.474;2023-08-17T01:16:31;16.80;99.90
3792;DHT22;1911;53.768;11.474;2023-08-17T01:19:00;16.70;99.90
3792;DHT22;1911;53.768;11.474;2023-08-17T01:21:42;16.70;99.90
3792;DHT22;1911;53.768;11.474;2023-08-17T01:24:11;16.60;99.90
3792;DHT22;1911;53.768;11.474;2023-08-17T01:26:36;16.60;99.90
3792;DHT22;1911;53.768;11.474;2023-08-17T01:29:02;16.60;99.90
3792;DHT22;1911;53.768;11.474;2023-08-17T01:31:31;16.50;99.90
3792;DHT22;1911;53.768;11.474;2023-08-17T01:34:04;16.50;99.90
3792;DHT22;1911;53.768;11.474;2023-08-17T01:36:37;16.50;99.90
3792;DHT22;1911;53.768;11.474;2023-08-17T01:39:05;16.50;99.90
3792;DHT22;1911;53.768;11.474;2023-08-17T01:41:32;16.30;99.90
3792;DHT22;1911;53.768;11.474;2023-08-17T01:43:59;16.30;99.90
3792;DHT22;1911;53.768;11.474;2023-08-17T01:46:30;16.30;99.90
3792;DHT22;1911;53.768;11.474;2023-08-17T01:48:55;16.20;99.90
3792;DHT22;1911;53.768;11.474;2023-08-17T01:51:21;16.20;99.90
3792;DHT22;1911;53.768;11.474;2023-08-17T01:53:47;16.30;99.90
3792;DHT22;1911;53.768;11.474;2023-08-17T01:56:13;16.20;99.90
3792;DHT22;1911;53.768;11.474;2023-08-17T01:58:38;16.20;99.90
3792;DHT22;1911;53.768;11.474;2023-08-17T02:01:04;16.20;99.90
3792;DHT22;1911;53.768;11.474;2023-08-17T02:03:29;16.10;99.90
3792;DHT22;1911;53.768;11.474;2023-08-17T02:05:59;16.10;99.90
3792;DHT22;1911;53.768;11.474;2023-08-17T02:08:25;16.10;99.90
3792;DHT22;1911;53.768;11.474;2023-08-17T02:10:50;16.20;99.90
3792;DHT22;1911;53.768;11.474;2023-08-17T02:13:16;16.10;99.90
3792;DHT22;1911;53.768;11.474;2023-08-17T02:15:42;16.10;99.90
3792;DHT22;1911;53.768;11.474;2023-08-17T02:18:08;16.10;99.90
3792;DHT22;1911;53.768;11.474;2023-08-17T02:20:33;16.20;99.90
3792;DHT22;1911;53.768;11.474;2023-08-17T02:22:59;16.20;99.90
3792;DHT22;1911;53.768;11.474;2023-08-17T02:25:25;16.20;99.90
3792;DHT22;1911;53.768;11.474;2023-08-17T02:27:51;16.20;99.90
3792;DHT22;1911;53.768;11.474;2023-08-17T02:30:17;16.30;99.90
3792;DHT22;1911;53.768;11.474;2023-08-17T02:32:42;16.40;99.90
3792;DHT22;1911;53.768;11.474;2023-08-17T02:35:08;16.30;99.90
3792;DHT22;1911;53.768;11.474;2023-08-17T02:37:34;16.30;99.90
3792;DHT22;1911;53.768;11.474;2023-08-17T02:39:59;16.40;99.90
3792;DHT22;1911;53.768;11.474;2023-08-17T02:42:25;16.40;99.90
3792;DHT22;1911;53.768;11.474;2023-08-17T02:44:51;16.40;99.90
3792;DHT22;1911;53.768;11.474;2023-08-17T02:47:16;16.40;99.90
3792;DHT22;1911;53.768;11.474;2023-08-17T02:49:42;16.40;99.90
3792;DHT22;1911;53.768;11.474;2023-08-17T02:52:07;16.40;99.90
3792;DHT22;1911;53.768;11.474;2023-08-17T02:54:33;16.30;99.90
3792;DHT22;1911;53.768;11.474;2023-08-17T02:56:59;16.30;99.90
3792;DHT22;1911;53.768;11.474;2023-08-17T02:59:25;16.40;99.90
3792;DHT22;1911;53.768;11.474;2023-08-17T03:01:50;16.40;99.90
3792;DHT22;1911;53.768;11.474;2023-08-17T03:04:16;16.40;99.90
3792;DHT22;1911;53.768;11.474;2023-08-17T03:06:41;16.30;99.90
3792;DHT22;1911;53.768;11.474;2023-08-17T03:09:07;16.30;99.90
3792;DHT22;1911;53.768;11.474;2023-08-17T03:11:32;16.30;99.90
3792;DHT22;1911;53.768;11.474;2023-08-17T03:13:58;16.30;99.90
3792;DHT22;1911;53.768;11.474;2023-08-17T03:16:26;16.30;99.90
3792;DHT22;1911;53.768;11.474;2023-08-17T03:18:53;16.30;99.90
3792;DHT22;1911;53.768;11.474;2023-08-17T03:21:18;16.30;99.90
3792;DHT22;1911;53.768;11.474;2023-08-17T03:23:45;16.30;99.90
3792;DHT22;1911;53.768;11.474;2023-08-17T03:26:10;16.30;99.90
3792;DHT22;1911;53.768;11.474;2023-08-17T03:28:36;16.20;99.90
3792;DHT22;1911;53.768;11.474;2023-08-17T03:31:02;16.20;99.90
3792;DHT22;1911;53.768;11.474;2023-08-17T03:33:28;16.20;99.90
3792;DHT22;1911;53.768;11.474;2023-08-17T03:35:54;16.30;99.90
3792;DHT22;1911;53.768;11.474;2023-08-17T03:38:20;16.30;99.90
3792;DHT22;1911;53.768;11.474;2023-08-17T03:40:46;16.30;99.90
3792;DHT22;1911;53.768;11.474;2023-08-17T03:43:13;16.30;99.90
3792;DHT22;1911;53.768;11.474;2023-08-17T03:45:40;16.30;99.90
3792;DHT22;1911;53.768;11.474;2023-08-17T03:48:06;16.30;99.90
3792;DHT22;1911;53.768;11.474;2023-08-17T03:50:32;16.20;99.90
3792;DHT22;1911;53.768;11.474;2023-08-17T03:52:58;16.20;99.90
3792;DHT22;1911;53.768;11.474;2023-08-17T03:55:23;16.20;99.90
3792;DHT22;1911;53.768;11.474;2023-08-17T03:57:49;16.10;99.90
3792;DHT22;1911;53.768;11.474;2023-08-17T04:00:14;16.10;99.90
3792;DHT22;1911;53.768;11.474;2023-08-17T04:02:40;16.10;99.90
3792;DHT22;1911;53.768;11.474;2023-08-17T04:05:06;16.20;99.90
3792;DHT22;1911;53.768;11.474;2023-08-17T04:07:31;16.20;99.90
3792;DHT22;1911;53.768;11.474;2023-08-17T04:09:57;16.30;99.90
3792;DHT22;1911;53.768;11.474;2023-08-17T04:12:23;16.30;99.90
3792;DHT22;1911;53.768;11.474;2023-08-17T04:14:48;16.30;99.90
3792;DHT22;1911;53.768;11.474;2023-08-17T04:17:14;16.30;99.90
3792;DHT22;1911;53.768;11.474;2023-08-17T04:19:39;16.30;99.90
3792;DHT22;1911;53.768;11.474;2023-08-17T04:22:05;16.30;99.90
3792;DHT22;1911;53.768;11.474;2023-08-17T04:24:30;16.40;99.90
3792;DHT22;1911;53.768;11.474;2023-08-17T04:26:56;16.50;99.90
3792;DHT22;1911;53.768;11.474;2023-08-17T04:29:22;16.50;99.90
3792;DHT22;1911;53.768;11.474;2023-08-17T04:31:48;16.60;99.90
3792;DHT22;1911;53.768;11.474;2023-08-17T04:34:13;16.60;99.90
3792;DHT22;1911;53.768;11.474;2023-08-17T04:36:39;16.70;99.90
3792;DHT22;1911;53.768;11.474;2023-08-17T04:39:07;16.80;99.90
3792;DHT22;1911;53.768;11.474;2023-08-17T04:41:34;16.80;99.90
3792;DHT22;1911;53.768;11.474;2023-08-17T04:44:00;16.90;99.90
3792;DHT22;1911;53.768;11.474;2023-08-17T04:46:25;16.90;99.90
3792;DHT22;1911;53.768;11.474;2023-08-17T04:48:51;16.90;99.90
3792;DHT22;1911;53.768;11.474;2023-08-17T04:51:17;16.90;99.90
3792;DHT22;1911;53.768;11.474;2023-08-17T04:53:43;17.00;99.90
3792;DHT22;1911;53.768;11.474;2023-08-17T04:56:08;17.00;99.90
3792;DHT22;1911;53.768;11.474;2023-08-17T04:58:34;17.00;99.90
3792;DHT22;1911;53.768;11.474;2023-08-17T05:00:59;17.00;99.90
3792;DHT22;1911;53.768;11.474;2023-08-17T05:03:25;17.10;99.90
3792;DHT22;1911;53.768;11.474;2023-08-17T05:05:53;17.10;99.90
3792;DHT22;1911;53.768;11.474;2023-08-17T05:08:19;17.10;99.90
3792;DHT22;1911;53.768;11.474;2023-08-17T05:10:47;17.10;99.90
3792;DHT22;1911;53.768;11.474;2023-08-17T05:13:13;17.10;99.90
3792;DHT22;1911;53.768;11.474;2023-08-17T05:15:38;17.10;99.90
3792;DHT22;1911;53.768;11.474;2023-08-17T05:18:04;17.10;99.90
3792;DHT22;1911;53.768;11.474;2023-08-17T05:20:30;17.00;99.90
3792;DHT22;1911;53.768;11.474;2023-08-17T05:22:55;17.10;99.90
3792;DHT22;1911;53.768;11.474;2023-08-17T05:25:21;17.10;99.90
3792;DHT22;1911;53.768;11.474;2023-08-17T05:27:47;17.00;99.90
3792;DHT22;1911;53.768;11.474;2023-08-17T05:30:14;17.00;99.90
3792;DHT22;1911;53.768;11.474;2023-08-17T05:32:40;17.10;99.90
3792;DHT22;1911;53.768;11.474;2023-08-17T05:35:06;17.10;99.90
3792;DHT22;1911;53.768;11.474;2023-08-17T05:37:31;17.20;99.90
3792;DHT22;1911;53.768;11.474;2023-08-17T05:39:57;17.20;99.90
3792;DHT22;1911;53.768;11.474;2023-08-17T05:42:23;17.30;99.90
3792;DHT22;1911;53.768;11.474;2023-08-17T05:44:48;17.30;99.90
3792;DHT22;1911;53.768;11.474;2023-08-17T05:47:14;17.40;99.90
3792;DHT22;1911;53.768;11.474;2023-08-17T05:49:43;17.30;99.90
3792;DHT22;1911;53.768;11.474;2023-08-17T05:52:08;17.40;99.90
3792;DHT22;1911;53.768;11.474;2023-08-17T05:54:34;17.30;99.90
3792;DHT22;1911;53.768;11.474;2023-08-17T05:56:59;17.30;99.90
3792;DHT22;1911;53.768;11.474;2023-08-17T05:59:25;17.40;99.90
3792;DHT22;1911;53.768;11.474;2023-08-17T06:01:50;17.50;99.90
3792;DHT22;1911;53.768;11.474;2023-08-17T06:04:16;17.40;99.90
3792;DHT22;1911;53.768;11.474;2023-08-17T06:06:42;17.40;99.90
3792;DHT22;1911;53.768;11.474;2023-08-17T06:09:07;17.50;99.90
3792;DHT22;1911;53.768;11.474;2023-08-17T06:11:34;17.50;99.90
3792;DHT22;1911;53.768;11.474;2023-08-17T06:13:59;17.60;99.90
3792;DHT22;1911;53.768;11.474;2023-08-17T06:16:25;17.70;99.90
3792;DHT22;1911;53.768;11.474;2023-08-17T06:18:50;17.70;99.90
3792;DHT22;1911;53.768;11.474;2023-08-17T06:21:16;17.70;99.90
3792;DHT22;1911;53.768;11.474;2023-08-17T06:23:42;17.70;99.90
3792;DHT22;1911;53.768;11.474;2023-08-17T06:26:07;17.70;99.90
3792;DHT22;1911;53.768;11.474;2023-08-17T06:28:33;17.70;99.90
3792;DHT22;1911;53.768;11.474;2023-08-17T06:30:59;17.80;99.90
3792;DHT22;1911;53.768;11.474;2023-08-17T06:33:24;17.80;99.90
3792;DHT22;1911;53.768;11.474;2023-08-17T06:35:50;17.80;99.90
3792;DHT22;1911;53.768;11.474;2023-08-17T06:38:16;17.90;99.90
3792;DHT22;1911;53.768;11.474;2023-08-17T06:40:42;17.90;99.90
3792;DHT22;1911;53.768;11.474;2023-08-17T06:43:08;17.90;99.90
3792;DHT22;1911;53.768;11.474;2023-08-17T06:45:35;17.90;99.90
3792;DHT22;1911;53.768;11.474;2023-08-17T06:48:01;17.90;99.90
3792;DHT22;1911;53.768;11.474;2023-08-17T06:50:26;17.90;99.90
3792;DHT22;1911;53.768;11.474;2023-08-17T06:52:53;17.90;99.90
3792;DHT22;1911;53.768;11.474;2023-08-17T06:55:19;17.80;99.90
3792;DHT22;1911;53.768;11.474;2023-08-17T06:57:45;17.80;99.90
3792;DHT22;1911;53.768;11.474;2023-08-17T07:00:11;17.80;99.90
3792;DHT22;1911;53.768;11.474;2023-08-17T07:02:37;17.80;99.90
3792;DHT22;1911;53.768;11.474;2023-08-17T07:05:03;17.80;99.90
3792;DHT22;1911;53.768;11.474;2023-08-17T07:07:32;17.80;99.90
3792;DHT22;1911;53.768;11.474;2023-08-17T07:09:58;17.80;99.90
3792;DHT22;1911;53.768;11.474;2023-08-17T07:12:23;17.90;99.90
3792;DHT22;1911;53.768;11.474;2023-08-17T07:14:49;18.10;99.90
3792;DHT22;1911;53.768;11.474;2023-08-17T07:17:15;18.10;99.90
3792;DHT22;1911;53.768;11.474;2023-08-17T07:19:41;18.20;99.90
3792;DHT22;1911;53.768;11.474;2023-08-17T07:22:06;18.20;99.90
3792;DHT22;1911;53.768;11.474;2023-08-17T07:24:32;18.20;99.90
3792;DHT22;1911;53.768;11.474;2023-08-17T07:26:57;18.30;99.90
3792;DHT22;1911;53.768;11.474;2023-08-17T07:29:23;18.10;99.90
3792;DHT22;1911;53.768;11.474;2023-08-17T07:31:49;18.10;99.90
3792;DHT22;1911;53.768;11.474;2023-08-17T07:34:14;18.00;99.90
3792;DHT22;1911;53.768;11.474;2023-08-17T07:36:40;17.90;99.90
3792;DHT22;1911;53.768;11.474;2023-08-17T07:39:05;17.90;99.90
3792;DHT22;1911;53.768;11.474;2023-08-17T07:41:31;17.70;99.90
3792;DHT22;1911;53.768;11.474;2023-08-17T07:43:57;17.80;99.90
3792;DHT22;1911;53.768;11.474;2023-08-17T07:46:22;17.60;99.90
3792;DHT22;1911;53.768;11.474;2023-08-17T07:48:48;17.60;99.90
3792;DHT22;1911;53.768;11.474;2023-08-17T07:51:14;17.50;99.90
3792;DHT22;1911;53.768;11.474;2023-08-17T07:53:39;17.50;99.90
3792;DHT22;1911;53.768;11.474;2023-08-17T07:56:05;17.40;99.90
3792;DHT22;1911;53.768;11.474;2023-08-17T07:58:31;17.30;99.90
3792;DHT22;1911;53.768;11.474;2023-08-17T08:00:57;17.40;99.90
3792;DHT22;1911;53.768;11.474;2023-08-17T08:03:22;17.40;99.90
3792;DHT22;1911;53.768;11.474;2023-08-17T08:05:48;17.40;99.90
3792;DHT22;1911;53.768;11.474;2023-08-17T08:08:14;17.30;99.90
3792;DHT22;1911;53.768;11.474;2023-08-17T08:10:40;17.30;99.90
3792;DHT22;1911;53.768;11.474;2023-08-17T08:13:06;17.30;99.90
3792;DHT22;1911;53.768;11.474;2023-08-17T08:15:33;17.30;99.90
3792;DHT22;1911;53.768;11.474;2023-08-17T08:17:58;17.40;99.90
3792;DHT22;1911;53.768;11.474;2023-08-17T08:20:24;17.40;99.90
3792;DHT22;1911;53.768;11.474;2023-08-17T08:22:49;17.10;99.90
3792;DHT22;1911;53.768;11.474;2023-08-17T08:25:15;16.80;99.90
3792;DHT22;1911;53.768;11.474;2023-08-17T08:27:41;16.60;99.90
3792;DHT22;1911;53.768;11.474;2023-08-17T08:30:07;16.50;99.90
3792;DHT22;1911;53.768;11.474;2023-08-17T08:32:33;16.50;99.90
3792;DHT22;1911;53.768;11.474;2023-08-17T08:34:58;16.50;99.90
3792;DHT22;1911;53.768;11.474;2023-08-17T08:37:24;16.50;99.90
3792;DHT22;1911;53.768;11.474;2023-08-17T08:39:54;16.50;99.90
3792;DHT22;1911;53.768;11.474;2023-08-17T08:42:21;16.50;99.90
3792;DHT22;1911;53.768;11.474;2023-08-17T08:44:47;16.60;99.90
3792;DHT22;1911;53.768;11.474;2023-08-17T08:47:13;16.60;99.90
3792;DHT22;1911;53.768;11.474;2023-08-17T08:49:40;16.70;99.90
3792;DHT22;1911;53.768;11.474;2023-08-17T08:52:12;16.80;99.90
3792;DHT22;1911;53.768;11.474;2023-08-17T08:54:41;16.80;99.90
3792;DHT22;1911;53.768;11.474;2023-08-17T08:57:12;16.80;99.90
3792;DHT22;1911;53.768;11.474;2023-08-17T08:59:41;16.80;99.90
3792;DHT22;1911;53.768;11.474;2023-08-17T09:02:15;16.80;99.90
3792;DHT22;1911;53.768;11.474;2023-08-17T09:04:43;16.80;99.90
3792;DHT22;1911;53.768;11.474;2023-08-17T09:07:09;16.80;99.90
3792;DHT22;1911;53.768;11.474;2023-08-17T09:09:37;16.90;99.90
3792;DHT22;1911;53.768;11.474;2023-08-17T09:12:03;16.90;99.90
3792;DHT22;1911;53.768;11.474;2023-08-17T09:14:29;16.90;99.90
3792;DHT22;1911;53.768;11.474;2023-08-17T09:16:55;16.90;99.90
3792;DHT22;1911;53.768;11.474;2023-08-17T09:19:24;16.90;99.90
3792;DHT22;1911;53.768;11.474;2023-08-17T09:21:50;17.00;99.90
3792;DHT22;1911;53.768;11.474;2023-08-17T09:24:15;17.00;99.90
3792;DHT22;1911;53.768;11.474;2023-08-17T09:26:41;17.00;99.90
3792;DHT22;1911;53.768;11.474;2023-08-17T09:29:20;16.90;99.90
3792;DHT22;1911;53.768;11.474;2023-08-17T09:31:48;16.90;99.90
3792;DHT22;1911;53.768;11.474;2023-08-17T09:34:17;16.90;99.90
3792;DHT22;1911;53.768;11.474;2023-08-17T09:36:46;16.90;99.90
3792;DHT22;1911;53.768;11.474;2023-08-17T09:39:12;16.90;99.90
3792;DHT22;1911;53.768;11.474;2023-08-17T09:41:39;16.80;99.90
3792;DHT22;1911;53.768;11.474;2023-08-17T09:44:06;16.80;99.90
3792;DHT22;1911;53.768;11.474;2023-08-17T09:46:32;16.80;99.90
3792;DHT22;1911;53.768;11.474;2023-08-17T09:48:57;16.80;99.90
3792;DHT22;1911;53.768;11.474;2023-08-17T09:51:24;16.70;99.90
3792;DHT22;1911;53.768;11.474;2023-08-17T09:53:53;16.70;99.90
3792;DHT22;1911;53.768;11.474;2023-08-17T09:56:22;16.70;99.90
3792;DHT22;1911;53.768;11.474;2023-08-17T09:58:49;16.70;99.90
3792;DHT22;1911;53.768;11.474;2023-08-17T10:01:15;16.70;99.90
3792;DHT22;1911;53.768;11.474;2023-08-17T10:03:43;16.70;99.90
3792;DHT22;1911;53.768;11.474;2023-08-17T10:06:13;16.80;99.90
3792;DHT22;1911;53.768;11.474;2023-08-17T10:08:46;16.80;99.90
3792;DHT22;1911;53.768;11.474;2023-08-17T10:11:18;16.80;99.90
3792;DHT22;1911;53.768;11.474;2023-08-17T10:14:15;16.90;99.90
3792;DHT22;1911;53.768;11.474;2023-08-17T10:16:58;16.90;99.90
3792;DHT22;1911;53.768;11.474;2023-08-17T10:19:37;16.90;99.90
3792;DHT22;1911;53.768;11.474;2023-08-17T10:25:00;17.00;99.90
3792;DHT22;1911;53.768;11.474;2023-08-17T10:27:27;17.00;99.90
3792;DHT22;1911;53.768;11.474;2023-08-17T10:29:53;17.10;99.90
3792;DHT22;1911;53.768;11.474;2023-08-17T10:32:21;17.10;99.90
3792;DHT22;1911;53.768;11.474;2023-08-17T10:34:48;17.00;99.90
3792;DHT22;1911;53.768;11.474;2023-08-17T10:37:14;17.00;99.90
3792;DHT22;1911;53.768;11.474;2023-08-17T10:39:49;17.00;99.90
3792;DHT22;1911;53.768;11.474;2023-08-17T10:42:15;17.00;99.90
3792;DHT22;1911;53.768;11.474;2023-08-17T10:44:54;17.10;99.90
3792;DHT22;1911;53.768;11.474;2023-08-17T10:47:22;17.10;99.90
3792;DHT22;1911;53.768;11.474;2023-08-17T10:49:49;17.00;99.90
3792;DHT22;1911;53.768;11.474;2023-08-17T10:52:15;17.00;99.90
3792;DHT22;1911;53.768;11.474;2023-08-17T10:54:49;17.00;99.90
3792;DHT22;1911;53.768;11.474;2023-08-17T10:57:28;16.90;99.90
3792;DHT22;1911;53.768;11.474;2023-08-17T11:00:20;16.90;99.90
3792;DHT22;1911;53.768;11.474;2023-08-17T11:03:05;16.90;99.90
3792;DHT22;1911;53.768;11.474;2023-08-17T11:05:46;17.00;99.90
3792;DHT22;1911;53.768;11.474;2023-08-17T11:08:40;17.10;99.90
3792;DHT22;1911;53.768;11.474;2023-08-17T11:11:13;17.10;99.90
3792;DHT22;1911;53.768;11.474;2023-08-17T11:13:43;17.10;99.90
3792;DHT22;1911;53.768;11.474;2023-08-17T11:16:11;17.10;99.90
3792;DHT22;1911;53.768;11.474;2023-08-17T11:18:37;17.10;99.90
3792;DHT22;1911;53.768;11.474;2023-08-17T11:21:05;17.10;99.90
3792;DHT22;1911;53.768;11.474;2023-08-17T11:23:32;17.10;99.90
3792;DHT22;1911;53.768;11.474;2023-08-17T11:25:58;17.20;99.90
3792;DHT22;1911;53.768;11.474;2023-08-17T11:28:24;17.10;99.90
3792;DHT22;1911;53.768;11.474;2023-08-17T11:31:00;17.10;99.90
3792;DHT22;1911;53.768;11.474;2023-08-17T11:33:26;17.10;99.90
3792;DHT22;1911;53.768;11.474;2023-08-17T11:35:54;17.20;99.90
3792;DHT22;1911;53.768;11.474;2023-08-17T11:38:20;17.20;99.90
3792;DHT22;1911;53.768;11.474;2023-08-17T11:40:46;17.30;99.90
3792;DHT22;1911;53.768;11.474;2023-08-17T11:43:11;17.30;99.90
3792;DHT22;1911;53.768;11.474;2023-08-17T11:45:37;17.30;99.90
3792;DHT22;1911;53.768;11.474;2023-08-17T11:48:03;17.40;99.90
3792;DHT22;1911;53.768;11.474;2023-08-17T11:50:29;17.40;99.90
3792;DHT22;1911;53.768;11.474;2023-08-17T11:52:54;17.40;99.90
3792;DHT22;1911;53.768;11.474;2023-08-17T11:55:20;17.30;99.90
3792;DHT22;1911;53.768;11.474;2023-08-17T11:57:46;17.30;99.90
3792;DHT22;1911;53.768;11.474;2023-08-17T12:00:18;17.30;99.90
3792;DHT22;1911;53.768;11.474;2023-08-17T12:02:47;17.40;99.90
3792;DHT22;1911;53.768;11.474;2023-08-17T12:05:13;17.50;99.90
3792;DHT22;1911;53.768;11.474;2023-08-17T12:07:39;17.50;99.90
3792;DHT22;1911;53.768;11.474;2023-08-17T12:10:05;17.60;99.90
3792;DHT22;1911;53.768;11.474;2023-08-17T12:12:31;17.70;99.90
3792;DHT22;1911;53.768;11.474;2023-08-17T12:14:57;17.70;99.90
3792;DHT22;1911;53.768;11.474;2023-08-17T12:17:24;17.80;99.90
3792;DHT22;1911;53.768;11.474;2023-08-17T12:19:54;17.80;99.90
3792;DHT22;1911;53.768;11.474;2023-08-17T12:22:23;17.80;99.90
3792;DHT22;1911;53.768;11.474;2023-08-17T12:24:49;18.00;99.90
3792;DHT22;1911;53.768;11.474;2023-08-17T12:27:14;18.20;99.90
3792;DHT22;1911;53.768;11.474;2023-08-17T12:29:50;18.30;99.90
3792;DHT22;1911;53.768;11.474;2023-08-17T12:32:19;18.40;99.90
3792;DHT22;1911;53.768;11.474;2023-08-17T12:34:46;18.60;99.90
3792;DHT22;1911;53.768;11.474;2023-08-17T12:37:17;18.70;99.90
3792;DHT22;1911;53.768;11.474;2023-08-17T12:39:43;18.60;99.90
3792;DHT22;1911;53.768;11.474;2023-08-17T12:42:09;18.70;99.90
3792;DHT22;1911;53.768;11.474;2023-08-17T12:44:34;18.60;99.90
3792;DHT22;1911;53.768;11.474;2023-08-17T12:47:00;18.70;99.90
3792;DHT22;1911;53.768;11.474;2023-08-17T12:49:25;18.60;99.90
3792;DHT22;1911;53.768;11.474;2023-08-17T12:51:51;18.70;99.90
3792;DHT22;1911;53.768;11.474;2023-08-17T12:54:17;18.50;99.90
3792;DHT22;1911;53.768;11.474;2023-08-17T12:56:44;18.50;99.90
3792;DHT22;1911;53.768;11.474;2023-08-17T12:59:09;18.50;99.90
3792;DHT22;1911;53.768;11.474;2023-08-17T13:01:35;18.50;99.90
3792;DHT22;1911;53.768;11.474;2023-08-17T13:04:00;18.60;99.90
3792;DHT22;1911;53.768;11.474;2023-08-17T13:06:26;18.60;99.90
3792;DHT22;1911;53.768;11.474;2023-08-17T13:08:51;18.60;99.90
3792;DHT22;1911;53.768;11.474;2023-08-17T13:11:17;18.70;99.90
3792;DHT22;1911;53.768;11.474;2023-08-17T13:13:42;18.80;99.90
3792;DHT22;1911;53.768;11.474;2023-08-17T13:16:09;18.80;99.90
3792;DHT22;1911;53.768;11.474;2023-08-17T13:18:37;18.70;99.90
3792;DHT22;1911;53.768;11.474;2023-08-17T13:21:02;18.80;99.90
3792;DHT22;1911;53.768;11.474;2023-08-17T13:23:28;18.90;99.90
3792;DHT22;1911;53.768;11.474;2023-08-17T13:25:54;19.00;99.90
3792;DHT22;1911;53.768;11.474;2023-08-17T13:28:21;18.90;99.90
3792;DHT22;1911;53.768;11.474;2023-08-17T13:30:47;18.80;99.90
3792;DHT22;1911;53.768;11.474;2023-08-17T13:33:13;18.70;99.90
3792;DHT22;1911;53.768;11.474;2023-08-17T13:35:39;18.60;99.90
3792;DHT22;1911;53.768;11.474;2023-08-17T13:38:09;18.60;99.90
3792;DHT22;1911;53.768;11.474;2023-08-17T13:40:35;18.60;99.90
3792;DHT22;1911;53.768;11.474;2023-08-17T13:43:04;18.70;99.90
3792;DHT22;1911;53.768;11.474;2023-08-17T13:45:30;18.70;99.90
3792;DHT22;1911;53.768;11.474;2023-08-17T13:47:58;18.70;99.90
3792;DHT22;1911;53.768;11.474;2023-08-17T13:50:23;18.70;99.90
3792;DHT22;1911;53.768;11.474;2023-08-17T13:52:54;18.70;99.90
3792;DHT22;1911;53.768;11.474;2023-08-17T13:55:30;18.80;99.90
3792;DHT22;1911;53.768;11.474;2023-08-17T13:58:00;18.80;99.90
3792;DHT22;1911;53.768;11.474;2023-08-17T14:07:48;18.90;99.90
3792;DHT22;1911;53.768;11.474;2023-08-17T14:10:15;18.80;99.90
3792;DHT22;1911;53.768;11.474;2023-08-17T14:12:40;18.80;99.90
3792;DHT22;1911;53.768;11.474;2023-08-17T14:15:06;18.80;99.90
3792;DHT22;1911;53.768;11.474;2023-08-17T14:17:32;18.80;99.90
3792;DHT22;1911;53.768;11.474;2023-08-17T14:19:58;18.80;99.90
3792;DHT22;1911;53.768;11.474;2023-08-17T14:22:23;18.80;99.90
3792;DHT22;1911;53.768;11.474;2023-08-17T14:24:49;18.80;99.90
3792;DHT22;1911;53.768;11.474;2023-08-17T14:27:14;18.80;99.90
3792;DHT22;1911;53.768;11.474;2023-08-17T14:29:40;18.70;99.90
3792;DHT22;1911;53.768;11.474;2023-08-17T14:32:07;18.70;99.90
3792;DHT22;1911;53.768;11.474;2023-08-17T14:34:32;18.70;99.90
3792;DHT22;1911;53.768;11.474;2023-08-17T14:36:58;18.80;99.90
3792;DHT22;1911;53.768;11.474;2023-08-17T14:39:23;18.80;99.90
3792;DHT22;1911;53.768;11.474;2023-08-17T14:41:49;18.80;99.90
3792;DHT22;1911;53.768;11.474;2023-08-17T14:44:14;18.80;99.90
3792;DHT22;1911;53.768;11.474;2023-08-17T14:46:42;18.80;99.90
3792;DHT22;1911;53.768;11.474;2023-08-17T14:49:08;18.80;99.90
3792;DHT22;1911;53.768;11.474;2023-08-17T14:51:37;18.80;99.90
3792;DHT22;1911;53.768;11.474;2023-08-17T14:54:04;18.80;99.90
3792;DHT22;1911;53.768;11.474;2023-08-17T14:56:30;18.90;99.90
3792;DHT22;1911;53.768;11.474;2023-08-17T14:58:55;19.00;99.90
3792;DHT22;1911;53.768;11.474;2023-08-17T15:01:21;19.00;99.90
3792;DHT22;1911;53.768;11.474;2023-08-17T15:03:46;19.10;99.90
3792;DHT22;1911;53.768;11.474;2023-08-17T15:06:12;19.00;99.90
3792;DHT22;1911;53.768;11.474;2023-08-17T15:08:38;19.00;99.90
3792;DHT22;1911;53.768;11.474;2023-08-17T15:11:03;19.10;99.90
3792;DHT22;1911;53.768;11.474;2023-08-17T15:13:29;19.20;99.90
3792;DHT22;1911;53.768;11.474;2023-08-17T15:15:55;19.30;99.90
3792;DHT22;1911;53.768;11.474;2023-08-17T15:18:21;19.20;99.90
3792;DHT22;1911;53.768;11.474;2023-08-17T15:20:47;19.30;99.90
3792;DHT22;1911;53.768;11.474;2023-08-17T15:23:12;19.30;99.90
3792;DHT22;1911;53.768;11.474;2023-08-17T15:25:38;19.40;99.90
3792;DHT22;1911;53.768;11.474;2023-08-17T15:28:03;19.40;99.90
3792;DHT22;1911;53.768;11.474;2023-08-17T15:30:29;19.30;99.90
3792;DHT22;1911;53.768;11.474;2023-08-17T15:32:55;19.30;99.90
3792;DHT22;1911;53.768;11.474;2023-08-17T15:35:21;19.30;99.90
3792;DHT22;1911;53.768;11.474;2023-08-17T15:37:46;19.40;99.90
3792;DHT22;1911;53.768;11.474;2023-08-17T15:40:12;19.40;99.90
3792;DHT22;1911;53.768;11.474;2023-08-17T15:42:38;19.40;99.90
3792;DHT22;1911;53.768;11.474;2023-08-17T15:45:04;19.40;99.90
3792;DHT22;1911;53.768;11.474;2023-08-17T15:47:30;19.30;99.90
3792;DHT22;1911;53.768;11.474;2023-08-17T15:49:55;19.30;99.90
3792;DHT22;1911;53.768;11.474;2023-08-17T15:52:21;19.30;99.90